Time;durP1;ratioP1;P1;durP2;ratioP2;P2;SDS_P1;SDS_P2;PMS_P1;PMS_P2;Temp;Humidity;BMP_temperature;BMP_pressure;BME280_temperature;BME280_humidity;BME280_pressure;Samples;Min_cycle;Max_cycle;Signal;HPM_P1;HPM_P2
2023/02/13 00:01:17;;;;;;;13.95;7.15;;;10.60;99.90;;;;;;5054467;28;20419;-70
2023/02/13 00:03:43;;;;;;;14.43;6.65;;;10.50;99.90;;;;;;5054184;28;20039;-69
2023/02/13 00:06:08;;;;;;;14.43;6.03;;;10.60;99.90;;;;;;5052883;28;20033;-69
2023/02/13 00:08:35;;;;;;;12.70;7.43;;;10.60;99.90;;;;;;5053369;28;20041;-71
2023/02/13 00:11:00;;;;;;;14.38;7.60;;;10.60;99.90;;;;;;5052589;28;20033;-71
2023/02/13 00:13:26;;;;;;;17.55;7.57;;;10.60;99.90;;;;;;5054524;28;20032;-70
2023/02/13 00:16:00;;;;;;;13.70;7.35;;;10.60;99.90;;;;;;5053799;28;20025;-71
2023/02/13 00:18:27;;;;;;;13.85;7.47;;;10.60;99.90;;;;;;5052800;28;20083;-70
2023/02/13 00:21:00;;;;;;;16.55;8.35;;;10.50;99.90;;;;;;5051865;28;20025;-71
2023/02/13 00:23:27;;;;;;;15.77;8.07;;;10.60;99.90;;;;;;5053906;28;20124;-70
2023/02/13 00:25:53;;;;;;;16.20;8.18;;;10.50;99.90;;;;;;5054648;28;20029;-70
2023/02/13 00:28:19;;;;;;;13.70;7.40;;;10.50;99.90;;;;;;5054568;28;20459;-69
2023/02/13 00:30:44;;;;;;;14.00;6.75;;;10.60;99.90;;;;;;5054272;28;20170;-70
2023/02/13 00:33:10;;;;;;;16.95;7.30;;;10.60;99.90;;;;;;5053080;28;20459;-70
2023/02/13 00:35:36;;;;;;;13.13;7.80;;;10.60;99.90;;;;;;5052955;28;20162;-69
2023/02/13 00:38:01;;;;;;;15.60;8.13;;;10.60;99.90;;;;;;5053227;28;20455;-70
2023/02/13 00:40:27;;;;;;;11.07;6.70;;;10.60;99.90;;;;;;5053506;28;20029;-70
2023/02/13 00:42:52;;;;;;;11.65;6.57;;;10.60;99.90;;;;;;5053305;28;20122;-69
2023/02/13 00:45:18;;;;;;;12.95;7.05;;;10.60;99.90;;;;;;5052959;28;20043;-69
2023/02/13 00:47:44;;;;;;;12.60;7.03;;;10.60;99.90;;;;;;5053087;28;20041;-69
2023/02/13 00:50:10;;;;;;;14.20;6.57;;;10.50;99.90;;;;;;5053404;28;20044;-70
2023/02/13 00:52:35;;;;;;;15.52;7.35;;;10.40;99.90;;;;;;5052777;28;20029;-70
2023/02/13 00:55:01;;;;;;;13.82;6.93;;;10.50;99.90;;;;;;5053146;28;20044;-70
2023/02/13 00:57:28;;;;;;;12.70;7.05;;;10.40;99.90;;;;;;5052707;28;20032;-70
2023/02/13 00:59:53;;;;;;;10.68;6.40;;;10.40;99.90;;;;;;5052957;28;20367;-70
2023/02/13 01:02:19;;;;;;;12.73;7.45;;;10.40;99.90;;;;;;5052710;28;20033;-70
2023/02/13 01:04:44;;;;;;;14.45;7.30;;;10.30;99.90;;;;;;5052618;28;20040;-68
2023/02/13 01:07:10;;;;;;;11.68;7.05;;;10.40;99.90;;;;;;5053110;28;20025;-71
2023/02/13 01:09:36;;;;;;;15.57;7.95;;;10.30;99.90;;;;;;5052490;28;20029;-70
2023/02/13 01:12:01;;;;;;;12.43;6.85;;;10.30;99.90;;;;;;5052729;28;20033;-71
2023/02/13 01:14:27;;;;;;;16.60;8.00;;;10.30;99.90;;;;;;5052397;28;20069;-71
2023/02/13 01:16:54;;;;;;;17.13;8.32;;;10.40;99.90;;;;;;5052412;28;20029;-69
2023/02/13 01:19:20;;;;;;;16.92;8.57;;;10.30;99.90;;;;;;5053040;28;20383;-71
2023/02/13 01:21:45;;;;;;;14.70;8.32;;;10.30;99.90;;;;;;5052482;28;20029;-70
2023/02/13 01:24:11;;;;;;;16.13;8.48;;;10.30;99.90;;;;;;5052378;28;20036;-71
2023/02/13 01:26:37;;;;;;;16.33;8.90;;;10.30;99.90;;;;;;5052039;28;20033;-70
2023/02/13 01:29:03;;;;;;;12.10;7.90;;;10.40;99.90;;;;;;5052408;28;20091;-70
2023/02/13 01:31:28;;;;;;;16.10;8.55;;;10.30;99.90;;;;;;5052348;28;20021;-71
2023/02/13 01:33:58;;;;;;;18.98;8.85;;;10.30;99.90;;;;;;5052060;28;20037;-69
2023/02/13 01:36:24;;;;;;;19.55;8.68;;;10.30;99.90;;;;;;5052165;28;20032;-71
2023/02/13 01:38:57;;;;;;;14.70;8.50;;;10.40;99.90;;;;;;5052116;28;20133;-69
2023/02/13 01:41:25;;;;;;;17.17;8.35;;;10.40;99.90;;;;;;5050980;28;20040;-69
2023/02/13 01:43:54;;;;;;;15.38;8.43;;;10.40;99.90;;;;;;5051823;28;20198;-69
2023/02/13 01:46:33;;;;;;;17.15;8.70;;;10.50;99.90;;;;;;5052295;28;20119;-69
2023/02/13 01:49:22;;;;;;;17.75;8.77;;;10.50;99.90;;;;;;5052057;28;20059;-70
2023/02/13 01:51:54;;;;;;;14.98;8.15;;;10.50;99.90;;;;;;5051322;28;20108;-70
2023/02/13 01:54:29;;;;;;;17.48;9.30;;;10.50;99.90;;;;;;5051543;28;20068;-71
2023/02/13 01:57:01;;;;;;;17.05;8.98;;;10.40;99.90;;;;;;5051559;28;20036;-71
2023/02/13 01:59:42;;;;;;;16.38;7.70;;;10.50;99.90;;;;;;5050489;28;20029;-71
2023/02/13 02:02:07;;;;;;;14.13;8.07;;;10.30;99.90;;;;;;5051721;28;20117;-70
2023/02/13 02:04:37;;;;;;;17.58;9.05;;;10.30;99.90;;;;;;5051430;28;20053;-70
2023/02/13 02:07:09;;;;;;;21.75;10.27;;;10.40;99.90;;;;;;5052029;28;20033;-70
2023/02/13 02:09:38;;;;;;;16.83;9.00;;;10.40;99.90;;;;;;5051405;28;20036;-70
2023/02/13 02:12:37;;;;;;;22.50;10.40;;;10.40;99.90;;;;;;5051105;28;20045;-70
2023/02/13 02:15:05;;;;;;;16.92;9.38;;;10.40;99.90;;;;;;5051231;28;20037;-70
2023/02/13 02:17:31;;;;;;;21.00;10.52;;;10.30;99.90;;;;;;5051382;28;20043;-70
2023/02/13 02:20:09;;;;;;;18.10;9.00;;;10.40;99.90;;;;;;5050146;28;20511;-70
2023/02/13 02:23:12;;;;;;;16.15;9.25;;;10.30;99.90;;;;;;5051198;28;20447;-69
2023/02/13 02:25:44;;;;;;;15.30;8.60;;;10.40;99.90;;;;;;5051123;28;20025;-69
2023/02/13 02:28:30;;;;;;;16.80;8.82;;;10.30;99.90;;;;;;5051303;28;20052;-69
2023/02/13 02:31:34;;;;;;;17.25;8.88;;;10.30;99.90;;;;;;5051119;28;20025;-71
2023/02/13 02:34:09;;;;;;;17.35;9.40;;;10.30;99.90;;;;;;5051122;28;20060;-70
2023/02/13 02:36:56;;;;;;;16.02;8.68;;;10.30;99.90;;;;;;5080137;28;20622;-71
2023/02/13 02:39:56;;;;;;;20.90;9.63;;;10.30;99.90;;;;;;5091076;28;20097;-70
2023/02/13 02:42:51;;;;;;;16.73;8.50;;;10.40;99.90;;;;;;5091365;28;20059;-70
2023/02/13 02:45:24;;;;;;;17.85;9.70;;;10.40;99.90;;;;;;5019010;28;20030;-70
2023/02/13 02:50:51;;;;;;;21.83;8.55;;;10.30;99.90;;;;;;5091158;28;20039;-70
2023/02/13 02:53:28;;;;;;;18.02;9.52;;;10.30;99.90;;;;;;5091119;28;20083;-70
2023/02/13 02:56:22;;;;;;;19.10;9.77;;;10.30;99.90;;;;;;5090845;28;20040;-70
2023/02/13 03:07:23;;;;;;;18.30;9.18;;;10.30;99.90;;;;;;5091925;28;20109;-71
2023/02/13 03:25:00;;;;;;;17.08;8.95;;;10.30;99.90;;;;;;5090950;28;20039;-69
2023/02/13 03:30:51;;;;;;;18.45;9.20;;;10.30;99.90;;;;;;5090804;28;20035;-69
2023/02/13 03:33:25;;;;;;;18.70;9.60;;;10.30;99.90;;;;;;5090713;28;20035;-70
2023/02/13 03:38:58;;;;;;;16.20;8.02;;;10.30;99.90;;;;;;5090740;28;20039;-71
2023/02/13 03:41:35;;;;;;;15.18;8.43;;;10.30;99.90;;;;;;5090618;28;20059;-70
2023/02/13 03:44:15;;;;;;;16.15;8.73;;;10.30;99.90;;;;;;5090495;28;20039;-70
2023/02/13 03:46:46;;;;;;;16.17;8.93;;;10.30;99.90;;;;;;5090491;28;20445;-71
2023/02/13 03:52:32;;;;;;;17.40;8.93;;;10.30;99.90;;;;;;5090769;28;20124;-69
2023/02/13 04:00:45;;;;;;;16.98;8.50;;;10.20;99.90;;;;;;5098199;28;20448;-70
2023/02/13 04:03:23;;;;;;;18.88;8.98;;;10.20;99.90;;;;;;5098270;28;20020;-69
2023/02/13 04:05:51;;;;;;;;;;;10.30;99.90;;;;;;5095825;28;20032;-70
2023/02/13 04:08:16;;;;;;;15.57;8.88;;;10.20;99.90;;;;;;5093668;28;19908;-70
2023/02/13 04:11:13;;;;;;;14.68;8.43;;;10.30;99.90;;;;;;5094401;28;20490;-70
2023/02/13 04:13:52;;;;;;;16.27;8.30;;;10.20;99.90;;;;;;5093848;28;20012;-70
2023/02/13 04:16:26;;;;;;;18.55;8.55;;;10.20;99.90;;;;;;5094246;28;20038;-70
2023/02/13 04:18:53;;;;;;;16.17;8.13;;;10.30;99.90;;;;;;5092683;28;20028;-70
2023/02/13 04:21:19;;;;;;;14.05;8.02;;;10.20;99.90;;;;;;5093711;28;20101;-70
2023/02/13 04:23:45;;;;;;;15.70;8.30;;;10.20;99.90;;;;;;5093726;28;20036;-70
2023/02/13 04:26:19;;;;;;;16.40;8.68;;;10.10;99.90;;;;;;5093557;28;20036;-70
2023/02/13 04:28:45;;;;;;;13.20;7.20;;;10.20;99.90;;;;;;5093976;28;20036;-71
2023/02/13 04:31:11;;;;;;;15.55;8.40;;;10.20;99.90;;;;;;5094103;28;20412;-70
2023/02/13 04:33:37;;;;;;;19.10;8.55;;;10.20;99.90;;;;;;5092377;28;20477;-70
2023/02/13 04:36:02;;;;;;;17.17;8.25;;;10.10;99.90;;;;;;5093299;28;20485;-70
2023/02/13 04:38:28;;;;;;;16.35;8.15;;;10.20;99.90;;;;;;5092176;28;20033;-70
2023/02/13 04:40:54;;;;;;;16.02;7.75;;;10.20;99.90;;;;;;5093219;28;20036;-69
2023/02/13 04:43:19;;;;;;;15.10;7.57;;;10.20;99.90;;;;;;5094055;28;20111;-68
2023/02/13 04:45:49;;;;;;;14.43;7.93;;;10.20;99.90;;;;;;5093231;28;20051;-71
2023/02/13 04:48:14;;;;;;;16.42;8.02;;;10.20;99.90;;;;;;5093397;28;20028;-69
2023/02/13 04:50:40;;;;;;;12.88;7.57;;;10.20;99.90;;;;;;5092999;28;20039;-69
2023/02/13 04:53:06;;;;;;;16.90;8.27;;;10.10;99.90;;;;;;5093244;28;20051;-69
2023/02/13 04:55:32;;;;;;;13.65;7.55;;;10.20;99.90;;;;;;5093430;28;20024;-71
2023/02/13 04:57:57;;;;;;;14.30;8.10;;;10.20;99.90;;;;;;5093194;28;20047;-70
2023/02/13 05:00:26;;;;;;;15.23;8.43;;;10.20;99.90;;;;;;5092917;28;20028;-71
2023/02/13 05:02:52;;;;;;;17.02;9.15;;;10.20;99.90;;;;;;5092906;28;20036;-71
2023/02/13 05:05:19;;;;;;;17.95;8.15;;;10.20;99.90;;;;;;5092771;28;20035;-70
2023/02/13 05:07:45;;;;;;;13.40;7.75;;;10.20;99.90;;;;;;5092289;28;20347;-69
2023/02/13 05:10:11;;;;;;;18.67;8.77;;;10.30;99.90;;;;;;5093011;28;20059;-70
2023/02/13 05:12:37;;;;;;;15.60;7.85;;;10.10;99.90;;;;;;5091821;28;20393;-71
2023/02/13 05:15:04;;;;;;;13.32;7.80;;;10.10;99.90;;;;;;5092674;28;20032;-70
2023/02/13 05:17:29;;;;;;;15.45;7.85;;;10.10;99.90;;;;;;5091762;28;20479;-70
2023/02/13 05:19:55;;;;;;;15.35;7.88;;;10.10;99.90;;;;;;5092524;28;20020;-69
2023/02/13 05:25:05;;;;;;;14.90;7.45;;;10.20;99.90;;;;;;5092802;28;20093;-70
2023/02/13 05:27:31;;;;;;;17.52;7.47;;;10.10;99.90;;;;;;5092264;28;20047;-71
2023/02/13 05:29:57;;;;;;;14.07;7.57;;;10.00;99.90;;;;;;5092555;28;20032;-71
2023/02/13 05:32:22;;;;;;;14.27;7.57;;;10.10;99.90;;;;;;5092489;28;20032;-71
2023/02/13 05:34:48;;;;;;;15.55;7.22;;;10.10;99.90;;;;;;5092296;28;20023;-71
2023/02/13 05:37:13;;;;;;;11.63;6.45;;;10.00;99.90;;;;;;5092975;28;20558;-71
2023/02/13 05:39:39;;;;;;;12.27;6.97;;;10.00;99.90;;;;;;5092775;28;20039;-72
2023/02/13 05:42:05;;;;;;;12.20;7.07;;;10.20;99.90;;;;;;5092275;28;20066;-71
2023/02/13 05:44:31;;;;;;;12.85;7.22;;;10.00;99.90;;;;;;5092254;28;20060;-71
2023/02/13 05:46:56;;;;;;;13.02;7.45;;;10.00;99.90;;;;;;5092160;28;20039;-71
2023/02/13 05:49:22;;;;;;;13.07;7.03;;;10.00;99.90;;;;;;5091475;28;20027;-71
2023/02/13 05:51:50;;;;;;;14.25;7.20;;;10.00;99.90;;;;;;5091842;28;20062;-70
2023/02/13 05:54:16;;;;;;;;;;;10.00;99.90;;;;;;5092308;28;20036;-70
2023/02/13 05:56:42;;;;;;;20.98;8.73;;;10.00;99.90;;;;;;5091916;28;20302;-70
2023/02/13 05:59:08;;;;;;;14.50;7.38;;;10.00;99.90;;;;;;5091809;28;20036;-70
2023/02/13 06:01:33;;;;;;;14.02;6.50;;;10.10;99.90;;;;;;5091639;28;20020;-70
2023/02/13 06:03:59;;;;;;;12.52;6.72;;;10.10;99.90;;;;;;5092174;28;20081;-71
2023/02/13 06:06:25;;;;;;;14.18;6.65;;;10.00;99.90;;;;;;5091705;28;20043;-71
2023/02/13 06:08:50;;;;;;;12.05;6.00;;;10.10;99.90;;;;;;5091513;28;20050;-71
2023/02/13 06:11:16;;;;;;;11.15;6.28;;;10.00;99.90;;;;;;5091617;28;20086;-70
2023/02/13 06:13:42;;;;;;;11.98;6.70;;;10.00;99.90;;;;;;5091415;28;20043;-70
2023/02/13 06:16:09;;;;;;;13.18;6.35;;;9.90;99.90;;;;;;5094518;28;20489;-71
2023/02/13 06:18:35;;;;;;;11.10;6.30;;;10.00;99.90;;;;;;5091918;28;20020;-70
2023/02/13 06:21:01;;;;;;;10.73;6.22;;;10.10;99.90;;;;;;5091691;28;20036;-69
2023/02/13 06:23:27;;;;;;;10.82;6.13;;;10.00;99.90;;;;;;5091106;28;20034;-70
2023/02/13 06:25:52;;;;;;;10.25;6.20;;;10.00;99.90;;;;;;5091963;28;20100;-71
2023/02/13 06:28:18;;;;;;;12.60;6.80;;;10.10;99.90;;;;;;5093459;28;20127;-68
2023/02/13 06:30:44;;;;;;;15.13;6.78;;;10.00;99.90;;;;;;5093780;28;20032;-71
2023/02/13 06:33:10;;;;;;;13.75;6.65;;;10.00;99.90;;;;;;5091078;28;20119;-70
2023/02/13 06:35:35;;;;;;;11.57;6.30;;;10.10;99.90;;;;;;5087160;28;20808;-70
2023/02/13 06:38:01;;;;;;;12.07;6.57;;;10.10;99.90;;;;;;5070889;28;20032;-70
2023/02/13 06:40:27;;;;;;;13.98;6.88;;;10.10;99.90;;;;;;5059095;28;20028;-71
2023/02/13 06:42:52;;;;;;;12.43;6.60;;;10.10;99.90;;;;;;5050011;28;20041;-71
2023/02/13 06:45:18;;;;;;;14.50;6.80;;;10.10;99.90;;;;;;5050842;28;20367;-70
2023/02/13 06:47:46;;;;;;;16.58;8.27;;;10.10;99.90;;;;;;5050500;28;20025;-69
2023/02/13 06:50:13;;;;;;;14.77;7.75;;;10.10;99.90;;;;;;5049536;28;20053;-71
2023/02/13 06:52:44;;;;;;;13.93;7.38;;;10.10;99.90;;;;;;5050562;28;20024;-71
2023/02/13 06:55:10;;;;;;;13.65;6.80;;;10.10;99.90;;;;;;5051017;28;20044;-72
2023/02/13 06:57:35;;;;;;;13.00;6.72;;;10.20;99.90;;;;;;5050601;28;20025;-71
2023/02/13 07:00:04;;;;;;;14.77;6.80;;;10.30;99.90;;;;;;5050855;28;20493;-71
2023/02/13 07:02:31;;;;;;;12.98;6.10;;;10.20;99.90;;;;;;5050653;28;20049;-71
2023/02/13 07:04:56;;;;;;;10.63;6.38;;;10.20;99.90;;;;;;5050474;28;20026;-70
2023/02/13 07:07:22;;;;;;;12.02;6.63;;;10.20;99.90;;;;;;5051032;28;20333;-71
2023/02/13 07:09:48;;;;;;;11.13;6.07;;;10.20;99.90;;;;;;5050653;28;20041;-71
2023/02/13 07:12:13;;;;;;;12.23;6.78;;;10.20;99.90;;;;;;5050872;28;20033;-70
2023/02/13 07:14:39;;;;;;;10.55;6.40;;;10.20;99.90;;;;;;5050434;28;20033;-73
2023/02/13 07:17:05;;;;;;;11.10;5.88;;;10.20;99.90;;;;;;5050972;28;20037;-72
2023/02/13 07:19:31;;;;;;;11.93;6.55;;;10.20;99.90;;;;;;5051256;28;20044;-73
2023/02/13 07:21:57;;;;;;;11.13;6.13;;;10.20;99.90;;;;;;5050582;28;20503;-73
2023/02/13 07:24:22;;;;;;;10.00;5.78;;;10.20;99.90;;;;;;5050754;28;20029;-73
2023/02/13 07:26:48;;;;;;;11.43;6.20;;;10.10;99.90;;;;;;5051140;28;20033;-73
2023/02/13 07:29:14;;;;;;;11.93;6.20;;;10.20;99.90;;;;;;5051618;28;20041;-73
2023/02/13 07:31:39;;;;;;;15.38;7.88;;;10.10;99.90;;;;;;5054499;28;20051;-71
2023/02/13 07:34:05;;;;;;;12.35;6.13;;;10.20;99.90;;;;;;5053552;28;20036;-71
2023/02/13 07:36:31;;;;;;;13.27;6.63;;;10.20;99.90;;;;;;5054067;28;20029;-70
2023/02/13 07:38:57;;;;;;;11.50;6.55;;;10.30;99.90;;;;;;5052945;28;20055;-72
2023/02/13 07:41:25;;;;;;;13.55;6.40;;;10.30;99.90;;;;;;5053992;28;20029;-72
2023/02/13 07:43:51;;;;;;;13.82;6.55;;;10.30;99.90;;;;;;5053749;28;20351;-71
2023/02/13 07:46:17;;;;;;;16.73;6.80;;;10.30;99.90;;;;;;5053505;28;20051;-71
2023/02/13 07:48:43;;;;;;;12.38;6.40;;;10.30;99.90;;;;;;5054343;28;20083;-72
2023/02/13 07:51:09;;;;;;;11.45;6.75;;;10.40;99.90;;;;;;5053618;28;20026;-72
2023/02/13 07:53:35;;;;;;;15.95;7.80;;;10.30;99.90;;;;;;5053768;28;20036;-72
2023/02/13 07:56:08;;;;;;;14.65;8.02;;;10.30;99.90;;;;;;5053619;28;20044;-71
2023/02/13 07:58:34;;;;;;;16.58;7.35;;;10.30;99.90;;;;;;5052590;28;20033;-72
2023/02/13 08:01:11;;;;;;;13.90;7.32;;;10.30;99.90;;;;;;5053256;28;20037;-72
2023/02/13 08:03:36;;;;;;;13.90;8.05;;;10.30;99.90;;;;;;5053723;28;20025;-72
2023/02/13 08:06:03;;;;;;;14.73;7.03;;;10.40;99.90;;;;;;5053713;28;20032;-72
2023/02/13 08:08:30;;;;;;;15.57;7.38;;;10.30;99.90;;;;;;5053404;28;20032;-71
2023/02/13 08:13:41;;;;;;;15.77;7.35;;;10.30;99.90;;;;;;5053469;28;20147;-72
2023/02/13 08:16:06;;;;;;;11.85;6.38;;;10.40;99.90;;;;;;5053712;28;20021;-73
2023/02/13 08:18:32;;;;;;;9.27;5.63;;;10.30;99.90;;;;;;5052358;28;20025;-71
2023/02/13 08:21:00;;;;;;;12.57;6.22;;;10.30;99.90;;;;;;5052900;28;20044;-72
2023/02/13 08:23:25;;;;;;;13.30;6.43;;;10.30;99.90;;;;;;5053332;28;20075;-72
2023/02/13 08:25:51;;;;;;;11.98;6.95;;;10.30;99.90;;;;;;5052003;28;20049;-70
2023/02/13 08:28:17;;;;;;;12.27;6.40;;;10.20;99.90;;;;;;5052604;28;20056;-72
2023/02/13 08:30:42;;;;;;;16.85;7.38;;;10.20;99.90;;;;;;5053891;28;20032;-71
2023/02/13 08:33:08;;;;;;;16.23;6.50;;;10.20;99.90;;;;;;5053906;28;20351;-72
2023/02/13 08:35:34;;;;;;;10.82;5.90;;;10.20;99.90;;;;;;5052816;28;20506;-73
2023/02/13 08:38:04;;;;;;;13.50;6.35;;;10.20;99.90;;;;;;5053957;28;20506;-72
2023/02/13 08:40:30;;;;;;;12.13;6.18;;;10.20;99.90;;;;;;5053432;28;20033;-73
2023/02/13 08:43:04;;;;;;;14.18;6.60;;;10.40;99.90;;;;;;5053804;28;20025;-73
2023/02/13 08:45:30;;;;;;;10.35;5.32;;;10.20;99.90;;;;;;5053761;28;20029;-72
2023/02/13 08:47:59;;;;;;;11.85;6.15;;;10.20;99.90;;;;;;5053985;28;20048;-74
2023/02/13 08:50:26;;;;;;;11.45;6.00;;;10.30;99.90;;;;;;5051490;28;20029;-70
2023/02/13 08:52:52;;;;;;;11.85;6.35;;;10.40;99.90;;;;;;5053134;28;20068;-70
2023/02/13 08:55:18;;;;;;;9.80;5.85;;;10.40;99.90;;;;;;5053661;28;20063;-70
2023/02/13 08:57:44;;;;;;;12.68;5.88;;;10.30;99.90;;;;;;5052921;28;20029;-75
2023/02/13 09:00:10;;;;;;;12.70;5.78;;;10.30;99.90;;;;;;5052871;28;20040;-72
2023/02/13 09:02:36;;;;;;;9.60;5.60;;;10.30;99.90;;;;;;5052749;28;20364;-70
2023/02/13 09:05:01;;;;;;;13.60;6.00;;;10.30;99.90;;;;;;5054092;28;20021;-69
2023/02/13 09:07:27;;;;;;;11.98;5.93;;;10.30;99.90;;;;;;5056622;28;20025;-73
2023/02/13 09:09:53;;;;;;;10.68;6.30;;;10.40;99.90;;;;;;5057372;28;20036;-73
2023/02/13 09:12:18;;;;;;;11.07;5.85;;;10.40;99.90;;;;;;5055347;28;20029;-73
2023/02/13 09:14:46;;;;;;;9.90;5.75;;;10.50;99.90;;;;;;5054108;28;20029;-73
2023/02/13 09:17:11;;;;;;;14.70;5.85;;;10.40;99.90;;;;;;5055977;28;20477;-68
2023/02/13 09:19:37;;;;;;;9.18;5.45;;;10.40;99.90;;;;;;5052664;28;20025;-69
2023/02/13 09:22:02;;;;;;;11.57;6.10;;;10.40;99.90;;;;;;5051436;28;20021;-72
2023/02/13 09:24:28;;;;;;;11.63;6.15;;;10.50;99.90;;;;;;5050994;28;20040;-73
2023/02/13 09:26:55;;;;;;;9.15;5.68;;;10.40;99.90;;;;;;5050862;28;20060;-74
2023/02/13 09:29:21;;;;;;;12.27;5.82;;;10.50;99.90;;;;;;5050708;28;20040;-70
2023/02/13 09:31:46;;;;;;;11.43;5.35;;;10.50;99.90;;;;;;5051646;28;20090;-72
2023/02/13 09:34:12;;;;;;;10.85;5.53;;;10.60;99.90;;;;;;5052069;28;20363;-75
2023/02/13 09:36:37;;;;;;;10.73;5.18;;;10.70;99.90;;;;;;5051168;28;20148;-76
2023/02/13 09:39:03;;;;;;;10.35;5.53;;;10.60;99.90;;;;;;5051734;28;20025;-73
2023/02/13 09:41:38;;;;;;;13.05;5.38;;;10.60;99.90;;;;;;5052019;28;20036;-72
2023/02/13 09:44:04;;;;;;;9.32;5.25;;;10.60;99.90;;;;;;5051548;28;20025;-73
2023/02/13 09:46:36;;;;;;;55.25;29.83;;;10.60;99.90;;;;;;5051466;28;20086;-73
2023/02/13 09:49:19;;;;;;;39.95;20.73;;;10.60;99.90;;;;;;5052504;28;20116;-73
2023/02/13 09:51:50;;;;;;;16.13;7.55;;;10.70;99.90;;;;;;5051239;28;20025;-73
2023/02/13 09:54:19;;;;;;;14.13;6.15;;;10.70;99.90;;;;;;5050193;28;20319;-72
2023/02/13 09:56:59;;;;;;;11.70;6.65;;;10.70;99.90;;;;;;5051480;28;20534;-72
2023/02/13 09:59:31;;;;;;;13.43;6.72;;;10.70;99.90;;;;;;5051403;28;20045;-74
2023/02/13 10:02:01;;;;;;;10.88;5.45;;;10.80;99.90;;;;;;5049994;28;20079;-73
2023/02/13 10:04:32;;;;;;;13.13;6.00;;;10.70;99.90;;;;;;5051580;28;20021;-71
2023/02/13 10:07:24;;;;;;;11.55;6.25;;;10.80;99.90;;;;;;5051165;28;20056;-72
2023/02/13 10:10:01;;;;;;;16.13;5.97;;;10.80;99.90;;;;;;5049907;28;20040;-73
2023/02/13 10:12:30;;;;;;;9.63;5.00;;;10.80;99.90;;;;;;5050910;28;20108;-72
2023/02/13 10:15:14;;;;;;;10.75;5.75;;;10.80;99.90;;;;;;5050176;28;20029;-74
2023/02/13 10:17:53;;;;;;;11.60;6.10;;;10.80;99.90;;;;;;5052488;28;20041;-72
2023/02/13 10:20:40;;;;;;;10.30;5.53;;;10.80;99.90;;;;;;5050117;28;20116;-73
2023/02/13 10:23:24;;;;;;;10.70;6.15;;;10.90;99.90;;;;;;5052351;28;20032;-72
2023/02/13 10:26:19;;;;;;;12.18;5.55;;;10.90;99.90;;;;;;5052469;28;20052;-72
2023/02/13 10:31:44;;;;;;;10.25;5.90;;;11.00;99.90;;;;;;5050900;28;20477;-72
2023/02/13 10:34:15;;;;;;;;;;;11.00;99.90;;;;;;5034627;28;20448;-72
2023/02/13 10:36:44;;;;;;;11.45;5.70;;;11.10;99.90;;;;;;5051793;28;20302;-73
2023/02/13 10:39:24;;;;;;;10.30;5.05;;;11.00;99.90;;;;;;5051473;28;20049;-73
2023/02/13 10:42:02;;;;;;;10.63;5.40;;;11.20;99.90;;;;;;5051567;28;20447;-71
2023/02/13 10:44:27;;;;;;;10.93;5.32;;;11.10;99.90;;;;;;5051987;28;20033;-72
2023/02/13 10:47:16;;;;;;;12.40;5.32;;;11.10;99.90;;;;;;5051646;28;20047;-71
2023/02/13 10:50:12;;;;;;;9.68;5.38;;;11.20;99.90;;;;;;5049449;28;20060;-72
2023/02/13 10:53:02;;;;;;;10.00;5.30;;;11.20;99.90;;;;;;5049384;28;20486;-73
2023/02/13 10:55:47;;;;;;;13.00;4.78;;;11.20;99.90;;;;;;5051677;28;20395;-73
2023/02/13 10:58:43;;;;;;;9.93;5.47;;;11.20;99.90;;;;;;5049583;28;20033;-72
2023/02/13 11:01:36;;;;;;;9.70;5.63;;;11.20;99.90;;;;;;5056345;28;20119;-73
2023/02/13 11:04:07;;;;;;;9.65;5.05;;;11.20;99.90;;;;;;5056249;28;20167;-75
2023/02/13 11:06:45;;;;;;;8.45;4.90;;;11.30;99.90;;;;;;5066456;28;20040;-75
2023/02/13 11:09:12;;;;;;;10.35;5.47;;;11.30;99.90;;;;;;5061477;28;20040;-74
2023/02/13 11:11:41;;;;;;;11.87;5.77;;;11.40;99.90;;;;;;5054399;28;20052;-74
2023/02/13 11:14:14;;;;;;;8.20;4.32;;;11.40;99.90;;;;;;5054484;28;20151;-74
2023/02/13 11:16:47;;;;;;;12.27;6.55;;;11.40;99.90;;;;;;5054859;28;20021;-72
2023/02/13 11:19:20;;;;;;;8.13;4.95;;;11.30;99.90;;;;;;5054885;28;20096;-72
2023/02/13 11:21:51;;;;;;;13.35;6.70;;;11.40;99.90;;;;;;5055815;28;20025;-71
2023/02/13 11:24:26;;;;;;;8.77;4.90;;;11.30;99.90;;;;;;5053332;28;20481;-76
2023/02/13 11:26:58;;;;;;;10.20;5.35;;;11.40;99.90;;;;;;5054691;28;20147;-72
2023/02/13 11:29:26;;;;;;;10.15;5.35;;;11.40;99.90;;;;;;5053193;28;20033;-72
2023/02/13 11:32:00;;;;;;;16.98;5.05;;;11.60;99.90;;;;;;5054076;28;20021;-71
2023/02/13 11:34:29;;;;;;;10.20;5.30;;;11.50;99.90;;;;;;5053743;28;20053;-71
2023/02/13 11:37:15;;;;;;;9.45;5.45;;;11.60;99.90;;;;;;5054615;28;20060;-74
2023/02/13 11:39:43;;;;;;;11.35;5.03;;;11.50;99.90;;;;;;5057285;28;20040;-76
2023/02/13 11:42:21;;;;;;;8.55;5.00;;;11.40;99.90;;;;;;5057802;28;20029;-75
2023/02/13 11:44:58;;;;;;;8.63;5.60;;;11.40;99.90;;;;;;5059364;28;20040;-74
2023/02/13 11:47:41;;;;;;;10.55;5.10;;;11.50;99.90;;;;;;5061225;28;20032;-77
2023/02/13 11:50:34;;;;;;;11.38;4.97;;;11.50;99.90;;;;;;5060355;28;20063;-77
2023/02/13 11:53:06;;;;;;;12.07;5.85;;;11.60;99.90;;;;;;5057867;28;20044;-73
2023/02/13 11:55:37;;;;;;;9.95;5.13;;;11.60;99.70;;;;;;5060964;28;20025;-72
2023/02/13 11:58:24;;;;;;;10.55;5.10;;;11.60;99.90;;;;;;5054205;28;20044;-71
2023/02/13 12:01:21;;;;;;;8.35;4.05;;;11.70;99.90;;;;;;5052835;28;20421;-72
2023/02/13 12:04:07;;;;;;;9.15;3.65;;;11.70;99.90;;;;;;5054312;28;20033;-69
2023/02/13 12:06:38;;;;;;;5.85;3.72;;;11.60;99.90;;;;;;5054136;28;20083;-74
2023/02/13 12:09:12;;;;;;;5.43;3.72;;;11.90;99.90;;;;;;5054356;28;20059;-72
2023/02/13 12:11:38;;;;;;;7.32;4.00;;;11.60;99.90;;;;;;5054076;28;20462;-71
2023/02/13 12:14:04;;;;;;;7.07;3.75;;;11.60;99.90;;;;;;5056074;28;20059;-70
2023/02/13 12:16:33;;;;;;;7.90;4.40;;;11.60;99.90;;;;;;5053840;28;20036;-73
2023/02/13 12:19:04;;;;;;;7.00;4.00;;;11.60;99.90;;;;;;5054264;28;20056;-73
2023/02/13 12:21:54;;;;;;;7.75;3.75;;;11.60;99.90;;;;;;5053671;28;20384;-72
2023/02/13 12:24:56;;;;;;;6.53;4.28;;;11.50;99.90;;;;;;5053298;28;20125;-72
2023/02/13 12:27:28;;;;;;;9.40;3.78;;;11.50;99.90;;;;;;5053177;28;20510;-73
2023/02/13 12:30:13;;;;;;;5.57;3.13;;;11.50;99.90;;;;;;5053019;28;20459;-72
2023/02/13 12:32:41;;;;;;;4.75;3.03;;;11.50;99.90;;;;;;5053027;28;20041;-72
2023/02/13 12:35:43;;;;;;;10.20;3.33;;;11.50;99.90;;;;;;5052977;28;20457;-72
2023/02/13 12:38:41;;;;;;;5.55;3.00;;;11.60;99.90;;;;;;5052914;28;20047;-72
2023/02/13 12:41:21;;;;;;;5.53;3.53;;;11.50;99.90;;;;;;5052896;28;20069;-73
2023/02/13 12:44:01;;;;;;;5.88;3.25;;;11.50;99.90;;;;;;5052787;28;20079;-73
2023/02/13 12:47:13;;;;;;;7.45;3.50;;;11.50;99.90;;;;;;5053177;28;20025;-73
2023/02/13 12:50:09;;;;;;;6.22;3.35;;;11.50;99.90;;;;;;5053493;28;20049;-70
2023/02/13 12:53:01;;;;;;;5.70;3.65;;;11.30;99.90;;;;;;5052554;28;20133;-72
2023/02/13 12:55:56;;;;;;;5.72;3.42;;;11.40;99.90;;;;;;5051745;28;20078;-72
2023/02/13 12:58:53;;;;;;;6.28;3.70;;;11.40;99.90;;;;;;5050575;28;20099;-70
2023/02/13 13:01:30;;;;;;;8.63;3.25;;;11.30;99.90;;;;;;5052725;28;20059;-72
2023/02/13 13:03:59;;;;;;;7.05;3.92;;;11.30;99.90;;;;;;5052506;28;20044;-72
2023/02/13 13:06:36;;;;;;;6.53;3.97;;;11.40;99.90;;;;;;5052944;28;20115;-70
2023/02/13 13:09:34;;;;;;;7.85;3.35;;;11.30;99.90;;;;;;5052468;28;20025;-72
2023/02/13 13:12:09;;;;;;;5.45;3.38;;;11.30;99.90;;;;;;5052267;28;20386;-72
2023/02/13 13:15:04;;;;;;;6.50;3.70;;;11.30;99.90;;;;;;5052590;28;20095;-74
2023/02/13 13:17:29;;;;;;;8.52;4.25;;;11.30;99.90;;;;;;5059219;28;20029;-74
2023/02/13 13:20:03;;;;;;;6.25;3.80;;;11.30;99.90;;;;;;5063240;28;20033;-72
2023/02/13 13:22:42;;;;;;;6.65;3.50;;;11.30;99.80;;;;;;5058246;28;20025;-74
2023/02/13 13:28:55;;;;;;;9.93;5.50;;;11.20;99.80;;;;;;5063813;28;20075;-70
2023/02/13 13:31:25;;;;;;;7.65;4.28;;;11.20;99.80;;;;;;5059836;28;20434;-71
2023/02/13 13:34:00;;;;;;;8.77;4.97;;;11.30;99.70;;;;;;5072218;28;20047;-71
2023/02/13 13:36:29;;;;;;;8.40;4.43;;;11.10;99.50;;;;;;5071239;28;20024;-71
2023/02/13 13:39:16;;;;;;;8.95;4.97;;;11.10;99.40;;;;;;5072753;28;20332;-70
2023/02/13 13:42:08;;;;;;;10.35;5.35;;;11.00;99.70;;;;;;5072441;28;20036;-73
2023/02/13 13:44:48;;;;;;;11.43;5.93;;;11.20;99.50;;;;;;5072461;28;20037;-72
2023/02/13 13:47:27;;;;;;;10.25;5.97;;;11.20;99.40;;;;;;5073129;28;20037;-73
2023/02/13 13:50:00;;;;;;;10.88;6.47;;;11.20;99.00;;;;;;5073529;28;21682;-71
2023/02/13 13:52:29;;;;;;;11.43;6.45;;;11.40;99.10;;;;;;5071931;28;20071;-72
2023/02/13 13:54:59;;;;;;;11.02;5.57;;;11.30;99.20;;;;;;5073173;28;20039;-72